createdAt,value
2018-01-21T00:02:28.205Z,73.61
2018-01-21T00:04:56.504Z,73.86
2018-01-21T00:07:24.835Z,73.73
2018-01-21T00:09:53.176Z,73.99
2018-01-21T00:12:21.491Z,73.85
2018-01-21T00:14:49.822Z,73.74
2018-01-21T00:17:18.143Z,73.49
2018-01-21T00:19:46.478Z,73.77
2018-01-21T00:22:32.748Z,73.71
2018-01-21T00:25:01.099Z,74.11
2018-01-21T00:27:29.400Z,74.56
2018-01-21T00:29:58.731Z,74.37
2018-01-21T00:32:27.066Z,74.11
2018-01-21T00:34:55.385Z,74.29
2018-01-21T00:37:23.741Z,74.21
2018-01-21T00:39:52.116Z,74.17
2018-01-21T00:42:20.410Z,74.01
2018-01-21T00:44:49.068Z,73.70
2018-01-21T00:47:17.396Z,73.77
2018-01-21T00:49:45.708Z,73.92
2018-01-21T00:52:14.058Z,73.62
2018-01-21T00:54:43.170Z,73.47
2018-01-21T00:57:11.507Z,73.81
2018-01-21T00:59:39.831Z,74.17
2018-01-21T01:02:08.124Z,74.16
2018-01-21T01:04:36.454Z,73.93
2018-01-21T01:07:05.056Z,74.42
2018-01-21T01:09:33.383Z,74.04
2018-01-21T01:12:01.676Z,74.08
2018-01-21T01:14:30.006Z,73.96
2018-01-21T01:16:58.316Z,74.51
2018-01-21T01:19:26.610Z,74.71
2018-01-21T01:21:54.923Z,74.79
2018-01-21T01:24:23.252Z,74.55
2018-01-21T01:26:51.595Z,74.63
2018-01-21T01:29:20.352Z,74.65
2018-01-21T01:31:48.678Z,74.55
2018-01-21T01:34:16.988Z,74.65
2018-01-21T01:36:45.333Z,74.52
2018-01-21T01:39:13.639Z,74.50
2018-01-21T01:41:41.923Z,74.84
2018-01-21T01:44:10.284Z,75.13
2018-01-21T01:46:39.407Z,75.20
2018-01-21T01:49:07.734Z,75.36
2018-01-21T01:51:36.555Z,75.05
2018-01-21T01:54:04.879Z,75.18
2018-01-21T01:56:34.008Z,75.34
2018-01-21T01:59:02.339Z,75.69
2018-01-21T02:01:30.661Z,75.63
2018-01-21T02:03:58.995Z,75.72
2018-01-21T02:06:27.345Z,75.85
2018-01-21T02:08:55.651Z,75.76
2018-01-21T02:11:23.969Z,76.03
2018-01-21T02:13:52.521Z,75.63
2018-01-21T02:16:21.588Z,75.19
2018-01-21T02:18:49.922Z,75.61
2018-01-21T02:21:18.264Z,75.69
2018-01-21T02:23:46.600Z,75.50
2018-01-21T02:26:14.926Z,75.75
2018-01-21T02:28:44.014Z,76.24
2018-01-21T02:31:12.373Z,76.43
2018-01-21T02:33:40.669Z,76.09
2018-01-21T02:36:09.101Z,75.65
2018-01-21T02:38:37.436Z,75.98
2018-01-21T02:41:06.567Z,77.31
2018-01-21T02:43:34.889Z,76.75
2018-01-21T02:46:03.214Z,77.56
2018-01-21T02:48:31.509Z,77.87
2018-01-21T02:50:59.860Z,77.19
2018-01-21T02:53:28.956Z,76.57
2018-01-21T02:55:57.264Z,76.95
2018-01-21T02:58:25.793Z,77.02
2018-01-21T03:00:54.125Z,77.14
2018-01-21T03:03:22.421Z,76.35
2018-01-21T03:05:50.761Z,76.52
2018-01-21T03:08:19.080Z,76.54
2018-01-21T03:10:47.393Z,76.60
2018-01-21T03:13:16.497Z,76.98
2018-01-21T03:15:45.581Z,76.55
2018-01-21T03:18:14.677Z,77.06
2018-01-21T03:20:44.103Z,77.31
2018-01-21T03:23:12.420Z,77.18
2018-01-21T03:25:40.735Z,77.06
2018-01-21T03:28:09.061Z,77.32
2018-01-21T03:30:37.372Z,77.29
2018-01-21T03:33:05.698Z,76.83
2018-01-21T03:35:34.047Z,76.80
2018-01-21T03:38:02.346Z,76.32
2018-01-21T03:40:31.419Z,75.80
2018-01-21T03:43:00.228Z,76.32
2018-01-21T03:45:29.336Z,76.28
2018-01-21T03:47:57.637Z,76.38
2018-01-21T03:50:25.961Z,75.88
2018-01-21T03:52:54.253Z,76.29
2018-01-21T03:55:23.333Z,75.90
2018-01-21T03:57:51.664Z,76.01
2018-01-21T04:00:19.988Z,75.90
2018-01-21T04:02:48.296Z,76.16
2018-01-21T04:05:16.838Z,76.27
2018-01-21T04:07:45.140Z,76.37
2018-01-21T04:10:14.205Z,76.39
2018-01-21T04:12:43.017Z,75.68
2018-01-21T04:15:11.329Z,75.51
2018-01-21T04:17:39.632Z,75.55
2018-01-21T04:20:08.026Z,75.54
2018-01-21T04:22:36.327Z,75.17
2018-01-21T04:25:04.636Z,75.14
2018-01-21T04:27:33.213Z,74.77
2018-01-21T04:30:02.297Z,74.16
2018-01-21T04:32:31.381Z,73.82
2018-01-21T04:34:59.714Z,74.57
2018-01-21T04:37:28.032Z,75.78
2018-01-21T04:39:56.350Z,76.72
2018-01-21T04:42:24.667Z,75.72
2018-01-21T04:44:52.974Z,75.31
2018-01-21T04:47:21.329Z,74.98
2018-01-21T04:49:50.224Z,75.02
2018-01-21T04:52:18.568Z,74.81
2018-01-21T04:54:46.895Z,75.04
2018-01-21T04:57:15.207Z,75.09
2018-01-21T04:59:44.275Z,75.32
2018-01-21T05:02:12.584Z,76.07
2018-01-21T05:04:40.944Z,76.06
2018-01-21T05:07:09.249Z,75.58
2018-01-21T05:09:37.549Z,75.37
2018-01-21T05:12:06.272Z,75.53
2018-01-21T05:14:34.594Z,75.99
2018-01-21T05:17:02.925Z,75.99
2018-01-21T05:19:31.254Z,76.85
2018-01-21T05:21:59.564Z,76.18
2018-01-21T05:24:28.628Z,75.32
2018-01-21T05:26:56.963Z,75.68
2018-01-21T05:29:25.284Z,75.49
2018-01-21T05:31:53.609Z,75.72
2018-01-21T05:34:22.218Z,75.76
2018-01-21T05:36:51.296Z,75.61
2018-01-21T05:39:19.584Z,75.51
2018-01-21T05:41:48.691Z,75.12
2018-01-21T05:44:17.754Z,75.44
2018-01-21T05:46:46.820Z,75.40
2018-01-21T05:49:15.152Z,76.20
2018-01-21T05:51:44.228Z,75.84
2018-01-21T05:54:12.544Z,76.54
2018-01-21T05:56:41.080Z,75.79
2018-01-21T05:59:09.426Z,75.77
2018-01-21T06:01:37.776Z,75.14
2018-01-21T06:04:06.930Z,75.88
2018-01-21T06:06:35.223Z,76.34
2018-01-21T06:09:03.543Z,75.88
2018-01-21T06:11:32.022Z,76.10
2018-01-21T06:14:00.334Z,75.75
2018-01-21T06:16:28.635Z,76.46
2018-01-21T06:18:57.241Z,76.65
2018-01-21T06:21:26.324Z,77.79
2018-01-21T06:23:54.639Z,77.21
2018-01-21T06:26:23.013Z,77.30
2018-01-21T06:28:51.365Z,77.79
2018-01-21T06:31:19.733Z,78.14
2018-01-21T06:33:48.128Z,77.17
2018-01-21T06:36:17.211Z,76.21
2018-01-21T06:38:45.531Z,76.52
2018-01-21T06:41:14.096Z,76.57
2018-01-21T06:43:42.423Z,76.37
2018-01-21T06:46:10.740Z,76.73
2018-01-21T06:48:39.112Z,77.80
2018-01-21T06:51:07.444Z,79.03
2018-01-21T06:53:35.764Z,78.43
2018-01-21T06:56:04.107Z,77.90
2018-01-21T06:58:32.396Z,77.89
2018-01-21T07:01:00.719Z,76.76
2018-01-21T07:03:29.923Z,76.63
2018-01-21T07:05:58.278Z,75.95
2018-01-21T07:08:26.615Z,75.58
2018-01-21T07:10:54.970Z,75.97
2018-01-21T07:13:23.328Z,76.64
2018-01-21T07:15:52.429Z,76.45
2018-01-21T07:18:21.564Z,75.74
2018-01-21T07:20:49.886Z,76.24
2018-01-21T07:23:18.203Z,75.89
2018-01-21T07:25:46.951Z,75.64
2018-01-21T07:28:15.273Z,77.15
2018-01-21T07:30:43.616Z,76.91
2018-01-21T07:33:11.972Z,75.96
2018-01-21T07:35:40.307Z,75.39
2018-01-21T07:38:08.592Z,76.61
2018-01-21T07:40:36.922Z,76.34
2018-01-21T07:43:05.251Z,75.88
2018-01-21T07:45:33.565Z,75.31
2018-01-21T07:48:02.177Z,75.38
2018-01-21T07:50:30.799Z,75.20
2018-01-21T07:52:59.131Z,75.92
2018-01-21T07:55:27.476Z,77.19
2018-01-21T07:57:55.792Z,76.52
2018-01-21T08:00:24.100Z,77.24
2018-01-21T08:02:52.430Z,77.55
2018-01-21T08:05:20.751Z,77.20
2018-01-21T08:07:49.067Z,78.10
2018-01-21T08:10:17.757Z,78.03
2018-01-21T08:12:46.837Z,77.33
2018-01-21T08:15:15.146Z,76.69
2018-01-21T08:17:43.468Z,76.39
2018-01-21T08:20:11.809Z,75.52
2018-01-21T08:22:40.150Z,75.31
2018-01-21T08:25:08.476Z,74.68
2018-01-21T08:27:36.807Z,73.65
2018-01-21T08:30:05.115Z,74.07
2018-01-21T08:32:33.803Z,74.46
2018-01-21T08:35:07.674Z,74.96
2018-01-21T08:37:41.395Z,74.51
2018-01-21T08:40:15.092Z,75.59
2018-01-21T08:42:43.823Z,76.04
2018-01-21T08:45:12.904Z,75.33
2018-01-21T08:47:41.223Z,74.46
2018-01-21T08:50:09.764Z,74.59
2018-01-21T08:52:38.085Z,74.46
2018-01-21T08:55:06.408Z,73.74
2018-01-21T08:57:35.524Z,73.93
2018-01-21T09:00:03.810Z,73.69
2018-01-21T09:02:32.100Z,73.22
2018-01-21T09:05:01.191Z,73.01
2018-01-21T09:07:29.516Z,72.67
2018-01-21T09:09:57.827Z,72.49
2018-01-21T09:12:26.921Z,71.91
2018-01-21T09:14:55.248Z,72.93
2018-01-21T09:17:23.545Z,72.04
2018-01-21T09:19:51.905Z,72.11
2018-01-21T09:22:20.215Z,72.47
2018-01-21T09:24:48.547Z,72.63
2018-01-21T09:27:16.899Z,72.33
2018-01-21T09:29:45.986Z,71.77
2018-01-21T09:32:14.285Z,72.15
2018-01-21T09:34:43.776Z,73.36
2018-01-21T09:37:12.095Z,73.17
2018-01-21T09:39:40.440Z,72.49
2018-01-21T09:42:09.352Z,73.30
2018-01-21T09:44:38.427Z,72.99
2018-01-21T09:47:06.728Z,73.30
2018-01-21T09:49:35.805Z,72.51
2018-01-21T09:52:04.124Z,71.86
2018-01-21T09:54:32.444Z,72.79
2018-01-21T09:57:01.302Z,71.81
2018-01-21T09:59:29.751Z,70.44
2018-01-21T10:01:58.083Z,71.74
2018-01-21T10:04:26.419Z,72.72
2018-01-21T10:06:54.836Z,74.13
2018-01-21T10:09:23.143Z,74.00
2018-01-21T10:11:51.491Z,74.01
2018-01-21T10:14:19.804Z,72.83
2018-01-21T10:16:48.106Z,72.11
2018-01-21T10:19:16.746Z,71.92
2018-01-21T10:21:45.064Z,71.19
2018-01-21T10:24:14.181Z,71.39
2018-01-21T10:26:42.536Z,72.21
2018-01-21T10:29:11.603Z,71.15
2018-01-21T10:31:39.897Z,73.36
2018-01-21T10:34:09.082Z,73.77
2018-01-21T10:36:37.396Z,73.63
2018-01-21T10:39:05.690Z,74.86
2018-01-21T10:41:34.517Z,75.40
2018-01-21T10:44:02.839Z,74.47
2018-01-21T10:46:31.155Z,73.28
2018-01-21T10:48:59.516Z,72.61
2018-01-21T10:51:27.837Z,71.81
2018-01-21T10:53:56.142Z,71.24
2018-01-21T10:56:24.491Z,71.69
2018-01-21T10:58:52.792Z,72.05
2018-01-21T11:01:21.868Z,72.04
2018-01-21T11:03:50.683Z,72.13
2018-01-21T11:06:19.008Z,71.74
2018-01-21T11:08:47.340Z,70.58
2018-01-21T11:11:16.463Z,70.82
2018-01-21T11:13:44.784Z,70.91
2018-01-21T11:16:13.100Z,71.49
2018-01-21T11:18:41.437Z,70.68
2018-01-21T11:21:09.725Z,69.83
2018-01-21T11:23:38.051Z,69.68
2018-01-21T11:26:06.578Z,69.44
2018-01-21T11:28:34.900Z,69.73
2018-01-21T11:31:03.221Z,70.92
2018-01-21T11:33:32.348Z,71.78
2018-01-21T11:36:01.443Z,71.43
2018-01-21T11:38:30.053Z,72.33
2018-01-21T11:40:58.396Z,72.68
2018-01-21T11:43:26.697Z,74.22
2018-01-21T11:45:55.759Z,75.69
2018-01-21T11:48:24.389Z,75.26
2018-01-21T11:50:52.688Z,73.75
2018-01-21T11:53:21.106Z,73.91
2018-01-21T11:55:49.454Z,72.61
2018-01-21T11:58:17.766Z,72.93
2018-01-21T12:00:46.089Z,72.76
2018-01-21T12:03:14.443Z,72.76
2018-01-21T12:05:43.525Z,72.84
2018-01-21T12:08:11.842Z,71.88
2018-01-21T12:10:40.248Z,71.24
2018-01-21T12:13:08.582Z,71.16
2018-01-21T12:15:36.903Z,70.98
2018-01-21T12:18:05.248Z,71.88
2018-01-21T12:20:33.596Z,71.91
2018-01-21T12:23:01.943Z,71.77
2018-01-21T12:25:30.244Z,75.04
2018-01-21T12:27:58.578Z,75.80
2018-01-21T12:30:26.909Z,74.65
2018-01-21T12:32:55.459Z,74.54
2018-01-21T12:35:23.811Z,74.28
2018-01-21T12:37:52.121Z,75.80
2018-01-21T12:40:20.944Z,75.80
2018-01-21T12:42:49.335Z,76.08
2018-01-21T12:45:17.597Z,76.08
2018-01-21T12:47:45.917Z,75.89
2018-01-21T12:50:14.266Z,77.54
2018-01-21T12:52:42.883Z,76.25
2018-01-21T12:55:11.784Z,76.85
2018-01-21T12:57:40.092Z,76.87
2018-01-21T13:00:08.403Z,76.06
2018-01-21T13:02:37.606Z,76.38
2018-01-21T13:05:05.912Z,76.33
2018-01-21T13:07:34.203Z,75.35
2018-01-21T13:10:02.558Z,74.83
2018-01-21T13:12:30.859Z,74.15
2018-01-21T13:14:59.224Z,74.87
2018-01-21T13:17:27.704Z,73.63
2018-01-21T13:19:56.009Z,73.84
2018-01-21T13:22:24.302Z,74.05
2018-01-21T13:24:52.655Z,75.34
2018-01-21T13:27:20.966Z,74.32
2018-01-21T13:29:49.276Z,74.18
2018-01-21T13:32:17.619Z,72.88
2018-01-21T13:34:45.981Z,74.14
2018-01-21T13:37:14.339Z,75.58
2018-01-21T13:39:42.901Z,75.85
2018-01-21T13:42:11.334Z,75.85
2018-01-21T13:44:39.814Z,77.28
2018-01-21T13:47:08.175Z,76.58
2018-01-21T13:49:36.479Z,76.14
2018-01-21T13:52:04.763Z,75.18
2018-01-21T13:54:33.147Z,75.17
2018-01-21T13:57:02.386Z,75.44
2018-01-21T13:59:30.816Z,75.44
2018-01-21T14:01:59.805Z,75.06
2018-01-21T14:04:28.189Z,75.06
2018-01-21T14:06:56.511Z,76.35
2018-01-21T14:09:24.842Z,75.97
2018-01-21T14:11:53.212Z,77.40
2018-01-21T14:14:21.575Z,76.98
2018-01-21T14:16:50.045Z,76.46
2018-01-21T14:19:18.465Z,77.73
2018-01-21T14:21:46.820Z,76.58
2018-01-21T14:24:15.706Z,76.87
2018-01-21T14:26:44.100Z,77.75
2018-01-21T14:29:12.495Z,77.74
2018-01-21T14:31:40.866Z,77.84
2018-01-21T14:34:09.220Z,77.67
2018-01-21T14:36:37.541Z,78.17
2018-01-21T14:39:06.666Z,77.64
2018-01-21T14:41:35.045Z,76.77
2018-01-21T14:44:03.491Z,78.32
2018-01-21T14:46:32.379Z,78.76
2018-01-21T14:49:00.757Z,78.76
2018-01-21T14:51:29.132Z,78.23
2018-01-21T14:53:57.512Z,78.24
2018-01-21T14:56:25.847Z,79.22
2018-01-21T14:58:54.193Z,80.01
2018-01-21T15:01:23.348Z,80.05
2018-01-21T15:03:51.672Z,80.11
2018-01-21T15:06:20.771Z,80.11
2018-01-21T15:08:50.384Z,80.08
2018-01-21T15:11:18.710Z,79.95
2018-01-21T15:13:47.016Z,80.08
2018-01-21T15:16:15.358Z,79.46
2018-01-21T15:18:43.689Z,79.22
2018-01-21T15:21:12.012Z,79.33
2018-01-21T15:23:40.352Z,79.37
2018-01-21T15:26:09.415Z,79.44
2018-01-21T15:28:37.718Z,78.87
2018-01-21T15:31:07.116Z,78.76
2018-01-21T15:33:35.455Z,78.95
2018-01-21T15:36:03.781Z,78.78
2018-01-21T15:38:32.908Z,78.69
2018-01-21T15:41:01.216Z,78.88
2018-01-21T15:43:29.560Z,80.48
2018-01-21T15:45:57.928Z,80.96
2018-01-21T15:48:26.534Z,80.38
2018-01-21T15:50:54.913Z,80.04
2018-01-21T15:53:23.349Z,79.98
2018-01-21T15:55:52.417Z,80.02
2018-01-21T15:58:20.738Z,80.36
2018-01-21T16:00:49.061Z,79.68
2018-01-21T16:03:17.385Z,80.00
2018-01-21T16:05:46.496Z,81.61
2018-01-21T16:08:14.865Z,81.49
2018-01-21T16:10:43.216Z,82.03
2018-01-21T16:13:11.526Z,82.37
2018-01-21T16:15:40.260Z,82.93
2018-01-21T16:18:09.367Z,82.92
2018-01-21T16:20:37.697Z,83.21
2018-01-21T16:23:06.059Z,82.00
2018-01-21T16:25:34.356Z,81.62
2018-01-21T16:28:02.703Z,82.09
2018-01-21T16:30:31.831Z,81.39
2018-01-21T16:33:00.128Z,80.98
2018-01-21T16:35:28.415Z,81.38
2018-01-21T16:38:14.429Z,81.41
2018-01-21T16:40:42.733Z,81.05
2018-01-21T16:43:11.823Z,81.17
2018-01-21T16:45:40.942Z,81.69
2018-01-21T16:48:09.336Z,81.73
2018-01-21T16:50:37.746Z,81.39
2018-01-21T16:53:06.166Z,82.62
2018-01-21T16:55:35.288Z,82.52
2018-01-21T16:58:03.632Z,82.23
2018-01-21T17:00:33.048Z,81.47
2018-01-21T17:03:02.284Z,82.46
2018-01-21T17:05:30.696Z,82.29
2018-01-21T17:07:59.085Z,82.25
2018-01-21T17:10:27.396Z,82.73
2018-01-21T17:12:56.464Z,82.31
2018-01-21T17:15:24.798Z,82.08
2018-01-21T17:17:53.135Z,82.17
2018-01-21T17:20:21.464Z,83.03
2018-01-21T17:22:50.280Z,82.35
2018-01-21T17:25:18.600Z,81.48
2018-01-21T17:27:46.915Z,81.78
2018-01-21T17:30:15.238Z,80.63
2018-01-21T17:32:44.370Z,81.52
2018-01-21T17:35:12.697Z,82.35
2018-01-21T17:37:41.060Z,81.60
2018-01-21T17:40:09.407Z,81.14
2018-01-21T17:42:37.725Z,81.15
2018-01-21T17:45:06.380Z,80.22
2018-01-21T17:47:34.706Z,79.37
2018-01-21T17:50:03.056Z,79.74
2018-01-21T17:52:31.399Z,79.33
2018-01-21T17:54:59.751Z,79.87
2018-01-21T17:57:28.092Z,79.72
2018-01-21T17:59:56.432Z,78.55
2018-01-21T18:02:24.768Z,78.95
2018-01-21T18:04:53.644Z,78.62
2018-01-21T18:07:22.387Z,77.26
2018-01-21T18:09:50.682Z,76.00
2018-01-21T18:12:19.037Z,76.58
2018-01-21T18:14:47.345Z,77.50
2018-01-21T18:17:15.638Z,77.74
2018-01-21T18:19:43.933Z,78.32
2018-01-21T18:22:12.245Z,78.48
2018-01-21T18:24:40.546Z,78.54
2018-01-21T18:27:08.831Z,78.67
2018-01-21T18:29:37.476Z,78.11
2018-01-21T18:32:06.648Z,78.58
2018-01-21T18:34:34.972Z,79.21
2018-01-21T18:37:04.436Z,79.34
2018-01-21T18:39:32.773Z,79.87
2018-01-21T18:42:01.099Z,80.83
2018-01-21T18:44:30.225Z,80.59
2018-01-21T18:46:58.551Z,80.58
2018-01-21T18:49:26.913Z,80.74
2018-01-21T18:51:55.680Z,80.96
2018-01-21T18:54:23.996Z,80.34
2018-01-21T18:56:53.829Z,80.03
2018-01-21T18:59:22.146Z,79.78
2018-01-21T19:01:50.472Z,80.21
2018-01-21T19:04:18.796Z,81.00
2018-01-21T19:06:47.195Z,82.74
2018-01-21T19:11:38.596Z,82.85
2018-01-21T19:14:07.100Z,82.39
2018-01-21T19:16:35.417Z,82.23
2018-01-21T19:19:03.759Z,82.52
2018-01-21T19:21:32.132Z,82.52
2018-01-21T19:24:00.799Z,81.70
2018-01-21T19:26:29.132Z,81.46
2018-01-21T19:28:57.549Z,81.84
2018-01-21T19:31:25.868Z,81.00
2018-01-21T19:33:54.169Z,81.54
2018-01-21T19:36:23.168Z,81.14
2018-01-21T19:38:52.354Z,81.41
2018-01-21T19:44:37.410Z,81.53
2018-01-21T19:47:05.788Z,82.54
2018-01-21T19:49:34.104Z,82.38
2018-01-21T19:52:02.428Z,81.99
2018-01-21T19:54:31.300Z,81.28
2018-01-21T19:56:59.622Z,79.66
2018-01-21T19:59:27.959Z,80.69
2018-01-21T20:01:57.092Z,81.49
2018-01-21T20:04:25.411Z,82.45
2018-01-21T20:06:53.711Z,82.35
2018-01-21T20:09:22.047Z,83.20
2018-01-21T20:11:50.345Z,83.00
2018-01-21T20:14:18.637Z,82.42
2018-01-21T20:16:47.049Z,81.48
2018-01-21T20:19:15.396Z,81.02
2018-01-21T20:21:43.727Z,81.43
2018-01-21T20:24:12.064Z,82.02
2018-01-21T20:26:40.385Z,81.89
2018-01-21T20:29:08.697Z,81.91
2018-01-21T20:31:37.030Z,82.43
2018-01-21T20:34:05.364Z,83.36
2018-01-21T20:36:33.693Z,82.70
2018-01-21T20:39:02.208Z,82.26
2018-01-21T20:41:30.586Z,82.26
2018-01-21T20:43:58.899Z,82.11
2018-01-21T20:46:27.247Z,81.80
2018-01-21T20:48:55.539Z,81.45
2018-01-21T20:51:29.415Z,80.45
2018-01-21T20:54:03.188Z,81.29
2018-01-21T20:56:32.154Z,80.90
2018-01-21T20:59:00.453Z,80.52
2018-01-21T21:01:28.788Z,79.96
2018-01-21T21:03:57.139Z,81.95
2018-01-21T21:06:25.460Z,82.80
2018-01-21T21:08:53.813Z,83.19
2018-01-21T21:11:22.856Z,82.37
2018-01-21T21:13:51.185Z,81.97
2018-01-21T21:16:19.496Z,83.23
2018-01-21T21:18:48.145Z,82.51
2018-01-21T21:21:16.479Z,82.20
2018-01-21T21:23:45.564Z,81.54
2018-01-21T21:26:14.701Z,81.74
2018-01-21T21:28:43.044Z,81.24
2018-01-21T21:31:12.172Z,80.71
2018-01-21T21:33:40.540Z,81.55
2018-01-21T21:36:08.860Z,81.68
2018-01-21T21:38:37.295Z,80.66
2018-01-21T21:41:05.861Z,80.63
2018-01-21T21:43:34.413Z,80.71
2018-01-21T21:46:02.722Z,81.17
2018-01-21T21:48:31.834Z,81.14
2018-01-21T21:51:00.968Z,81.65
2018-01-21T21:53:29.352Z,81.62
2018-01-21T21:55:57.684Z,82.49
2018-01-21T21:58:26.768Z,82.28
2018-01-21T22:00:55.837Z,82.20
2018-01-21T22:03:24.444Z,82.20
2018-01-21T22:05:52.905Z,82.41
2018-01-21T22:08:21.254Z,83.37
2018-01-21T22:10:49.628Z,83.92
2018-01-21T22:13:17.964Z,83.71
2018-01-21T22:15:47.024Z,82.81
2018-01-21T22:18:15.404Z,82.71
2018-01-21T22:20:43.768Z,82.42
2018-01-21T22:23:12.322Z,83.28
2018-01-21T22:25:40.977Z,82.53
2018-01-21T22:28:09.313Z,83.24
2018-01-21T22:30:37.619Z,83.50
2018-01-21T22:33:05.971Z,83.02
2018-01-21T22:35:34.272Z,82.92
2018-01-21T22:38:02.680Z,83.22
2018-01-21T22:40:31.794Z,83.21
2018-01-21T22:43:00.116Z,83.40
2018-01-21T22:45:28.747Z,82.34
2018-01-21T22:47:58.184Z,82.95
2018-01-21T22:50:26.491Z,82.61
2018-01-21T22:52:54.838Z,82.09
2018-01-21T22:55:23.192Z,81.90
2018-01-21T22:57:52.272Z,82.72
2018-01-21T23:00:20.590Z,82.71
2018-01-21T23:02:48.923Z,81.94
2018-01-21T23:05:17.213Z,82.68
2018-01-21T23:07:46.303Z,83.41
2018-01-21T23:10:15.919Z,84.06
2018-01-21T23:12:44.979Z,84.09
2018-01-21T23:15:13.264Z,83.63
2018-01-21T23:17:41.588Z,82.85
2018-01-21T23:20:09.918Z,82.84
2018-01-21T23:22:39.017Z,83.52
2018-01-21T23:25:07.353Z,82.79
2018-01-21T23:27:35.656Z,83.06
2018-01-21T23:30:04.002Z,82.69
2018-01-21T23:32:32.657Z,82.96
2018-01-21T23:35:01.744Z,83.43
2018-01-21T23:37:30.080Z,83.83
2018-01-21T23:39:58.396Z,83.16
2018-01-21T23:42:26.688Z,82.77
2018-01-21T23:44:55.754Z,82.88
2018-01-21T23:47:24.120Z,82.88
2018-01-21T23:49:52.436Z,82.66
2018-01-21T23:52:20.738Z,82.35
2018-01-21T23:54:49.580Z,82.06
2018-01-21T23:57:17.894Z,82.75
2018-01-21T23:59:46.232Z,81.99
